createdAt,value
2023-01-06T00:00:19.567Z,99.99
2023-01-06T00:01:19.534Z,99.99
2023-01-06T00:02:19.553Z,99.99
2023-01-06T00:03:19.520Z,99.99
2023-01-06T00:04:19.537Z,99.99
2023-01-06T00:05:19.490Z,99.99
2023-01-06T00:06:19.470Z,99.99
2023-01-06T00:07:19.475Z,99.99
2023-01-06T00:08:19.464Z,99.99
2023-01-06T00:09:19.476Z,99.99
2023-01-06T00:10:19.424Z,99.99
2023-01-06T00:11:19.429Z,99.99
2023-01-06T00:12:19.405Z,99.99
2023-01-06T00:13:19.402Z,99.99
2023-01-06T00:14:19.432Z,99.99
2023-01-06T00:15:19.473Z,99.99
2023-01-06T00:16:19.362Z,99.99
2023-01-06T00:17:19.401Z,99.99
2023-01-06T00:18:19.344Z,99.99
2023-01-06T00:19:19.378Z,99.99
2023-01-06T00:20:19.321Z,99.99
2023-01-06T00:21:19.321Z,99.99
2023-01-06T00:22:19.293Z,99.99
2023-01-06T00:23:19.291Z,99.99
2023-01-06T00:24:19.271Z,99.99
2023-01-06T00:25:19.330Z,99.99
2023-01-06T00:26:19.286Z,99.99
2023-01-06T00:27:19.252Z,99.99
2023-01-06T00:28:19.249Z,99.99
2023-01-06T00:29:19.223Z,99.99
2023-01-06T00:30:19.275Z,99.99
2023-01-06T00:31:19.313Z,99.99
2023-01-06T00:32:19.191Z,99.99
2023-01-06T00:33:19.185Z,99.99
2023-01-06T00:34:19.172Z,99.99
2023-01-06T00:35:19.180Z,99.99
2023-01-06T00:36:19.196Z,99.99
2023-01-06T00:37:19.151Z,99.99
2023-01-06T00:38:19.131Z,99.99
2023-01-06T00:39:19.122Z,99.99
2023-01-06T00:40:19.135Z,99.99
2023-01-06T00:41:19.101Z,99.99
2023-01-06T00:42:19.113Z,99.99
2023-01-06T00:43:19.080Z,99.99
2023-01-06T00:44:19.071Z,99.99
2023-01-06T00:45:19.052Z,99.93
2023-01-06T00:46:19.061Z,99.93
2023-01-06T00:47:19.080Z,99.82
2023-01-06T00:48:19.018Z,99.82
2023-01-06T00:49:19.022Z,99.72
2023-01-06T00:50:19.000Z,99.62
2023-01-06T00:51:18.992Z,99.41
2023-01-06T00:52:18.984Z,99.31
2023-01-06T00:53:19.026Z,99.21
2023-01-06T00:54:18.957Z,99.11
2023-01-06T00:55:18.986Z,99.11
2023-01-06T00:56:18.930Z,99.01
2023-01-06T00:57:18.926Z,98.90
2023-01-06T00:58:18.948Z,98.80
2023-01-06T00:59:18.912Z,98.70
2023-01-06T01:00:18.892Z,98.60
2023-01-06T01:01:18.920Z,98.39
2023-01-06T01:02:19.129Z,98.29
2023-01-06T01:03:18.965Z,98.19
2023-01-06T01:04:18.841Z,97.98
2023-01-06T01:05:18.880Z,97.88
2023-01-06T01:06:18.820Z,97.67
2023-01-06T01:07:18.819Z,97.53
2023-01-06T01:08:18.875Z,97.53
2023-01-06T01:09:18.795Z,97.47
2023-01-06T01:10:18.780Z,97.33
2023-01-06T01:11:18.800Z,97.22
2023-01-06T01:12:18.760Z,97.12
2023-01-06T01:13:18.749Z,97.12
2023-01-06T01:14:18.767Z,97.12
2023-01-06T01:15:18.737Z,97.12
2023-01-06T01:16:18.749Z,97.12
2023-01-06T01:17:18.700Z,97.16
2023-01-06T01:18:18.732Z,97.06
2023-01-06T01:19:18.686Z,96.92
2023-01-06T01:20:18.717Z,96.92
2023-01-06T01:21:18.662Z,96.92
2023-01-06T01:22:18.655Z,96.92
2023-01-06T01:23:18.649Z,96.86
2023-01-06T01:24:18.666Z,96.81
2023-01-06T01:25:18.746Z,96.81
2023-01-06T01:26:18.606Z,96.86
2023-01-06T01:27:18.606Z,96.86
2023-01-06T01:28:18.589Z,96.86
2023-01-06T01:29:18.584Z,96.66
2023-01-06T01:30:18.569Z,96.55
2023-01-06T01:31:18.661Z,96.45
2023-01-06T01:32:18.559Z,96.45
2023-01-06T01:33:18.539Z,96.34
2023-01-06T01:34:18.531Z,96.25
2023-01-06T01:35:18.517Z,96.04
2023-01-06T01:36:18.504Z,95.94
2023-01-06T01:37:18.539Z,95.79
2023-01-06T01:38:18.478Z,95.69
2023-01-06T01:39:18.509Z,95.38
2023-01-06T01:40:18.463Z,95.38
2023-01-06T01:41:18.471Z,95.38
2023-01-06T01:42:18.484Z,95.38
2023-01-06T01:43:18.439Z,95.38
2023-01-06T01:44:18.417Z,95.28
2023-01-06T01:45:18.496Z,95.43
2023-01-06T01:46:18.448Z,95.32
2023-01-06T01:47:18.389Z,95.22
2023-01-06T01:48:18.398Z,95.07
2023-01-06T01:49:18.368Z,95.12
2023-01-06T01:50:18.412Z,95.02
2023-01-06T01:51:18.348Z,94.92
2023-01-06T01:52:18.329Z,94.97
2023-01-06T01:53:18.349Z,95.02
2023-01-06T01:54:18.306Z,94.92
2023-01-06T01:55:18.309Z,94.92
2023-01-06T01:56:18.292Z,94.81
2023-01-06T01:57:18.299Z,94.81
2023-01-06T01:58:18.298Z,94.71
2023-01-06T01:59:18.265Z,94.51
2023-01-06T02:00:18.280Z,94.20
2023-01-06T02:01:18.299Z,93.89
2023-01-06T02:02:18.289Z,93.99
2023-01-06T02:03:18.253Z,93.89
2023-01-06T02:04:18.208Z,93.85
2023-01-06T02:05:18.217Z,93.74
2023-01-06T02:06:18.220Z,93.85
2023-01-06T02:07:18.181Z,93.79
2023-01-06T02:08:18.158Z,93.54
2023-01-06T02:09:18.148Z,93.59
2023-01-06T02:10:18.155Z,93.59
2023-01-06T02:11:18.127Z,93.65
2023-01-06T02:12:18.108Z,93.59
2023-01-06T02:13:18.106Z,93.48
2023-01-06T02:14:18.100Z,93.28
2023-01-06T02:15:18.134Z,93.18
2023-01-06T02:16:18.132Z,93.07
2023-01-06T02:17:18.069Z,93.07
2023-01-06T02:18:18.046Z,93.03
2023-01-06T02:19:18.048Z,93.07
2023-01-06T02:20:18.074Z,93.07
2023-01-06T02:21:18.030Z,93.07
2023-01-06T02:22:18.007Z,93.18
2023-01-06T02:23:17.997Z,92.87
2023-01-06T02:24:18.015Z,92.66
2023-01-06T02:25:17.985Z,92.66
2023-01-06T02:26:18.021Z,92.46
2023-01-06T02:27:17.978Z,92.36
2023-01-06T02:28:17.944Z,92.36
2023-01-06T02:29:17.941Z,92.46
2023-01-06T02:30:17.928Z,92.36
2023-01-06T02:31:18.008Z,92.15
2023-01-06T02:32:17.930Z,92.15
2023-01-06T02:33:17.897Z,92.25
2023-01-06T02:34:17.881Z,92.15
2023-01-06T02:35:17.865Z,92.05
2023-01-06T02:36:17.884Z,92.11
2023-01-06T02:37:17.855Z,92.15
2023-01-06T02:38:17.869Z,91.85
2023-01-06T02:39:17.824Z,91.85
2023-01-06T02:40:17.814Z,91.95
2023-01-06T02:41:17.853Z,91.85
2023-01-06T02:42:17.824Z,91.85
2023-01-06T02:43:17.783Z,91.85
2023-01-06T02:44:17.795Z,91.95
2023-01-06T02:45:17.823Z,92.05
2023-01-06T02:46:17.774Z,92.05
2023-01-06T02:47:17.744Z,92.05
2023-01-06T02:48:17.736Z,92.15
2023-01-06T02:49:17.733Z,91.95
2023-01-06T02:50:17.713Z,91.95
2023-01-06T02:51:17.731Z,91.85
2023-01-06T02:52:17.689Z,91.85
2023-01-06T02:53:17.675Z,91.85
2023-01-06T02:54:17.695Z,91.85
2023-01-06T02:55:17.646Z,91.85
2023-01-06T02:56:17.676Z,91.74
2023-01-06T02:57:17.627Z,91.64
2023-01-06T02:58:17.624Z,91.64
2023-01-06T02:59:17.605Z,91.64
2023-01-06T03:00:17.634Z,91.74
2023-01-06T03:01:17.664Z,91.85
2023-01-06T03:02:17.657Z,91.85
2023-01-06T03:03:17.563Z,91.85
2023-01-06T03:04:17.640Z,91.85
2023-01-06T03:05:17.538Z,91.95
2023-01-06T03:06:17.598Z,91.95
2023-01-06T03:07:17.523Z,91.85
2023-01-06T03:08:17.517Z,91.95
2023-01-06T03:09:17.503Z,92.05
2023-01-06T03:10:17.497Z,91.95
2023-01-06T03:11:17.524Z,91.85
2023-01-06T03:12:17.471Z,91.23
2023-01-06T03:13:17.466Z,91.13
2023-01-06T03:14:17.474Z,91.13
2023-01-06T03:15:17.433Z,91.13
2023-01-06T03:16:17.483Z,91.13
2023-01-06T03:17:17.419Z,91.13
2023-01-06T03:18:17.404Z,91.13
2023-01-06T03:19:17.395Z,91.13
2023-01-06T03:20:17.415Z,91.33
2023-01-06T03:21:17.372Z,91.44
2023-01-06T03:22:17.362Z,91.33
2023-01-06T03:23:17.350Z,91.33
2023-01-06T03:24:17.345Z,91.33
2023-01-06T03:25:17.323Z,91.23
2023-01-06T03:26:17.435Z,91.33
2023-01-06T03:27:17.300Z,91.33
2023-01-06T03:28:17.299Z,91.44
2023-01-06T03:29:17.291Z,91.54
2023-01-06T03:30:17.332Z,91.44
2023-01-06T03:31:17.317Z,91.54
2023-01-06T03:32:17.301Z,91.23
2023-01-06T03:33:17.235Z,91.13
2023-01-06T03:34:17.236Z,91.23
2023-01-06T03:35:17.233Z,91.23
2023-01-06T03:36:17.213Z,91.23
2023-01-06T03:37:17.200Z,91.13
2023-01-06T03:38:17.233Z,90.92
2023-01-06T03:39:17.194Z,90.92
2023-01-06T03:40:17.186Z,90.72
2023-01-06T03:41:17.191Z,90.72
2023-01-06T03:42:31.394Z,90.82
2023-01-06T03:43:18.129Z,90.82
2023-01-06T03:44:17.137Z,90.72
2023-01-06T03:45:17.117Z,90.72
2023-01-06T03:46:17.211Z,90.62
2023-01-06T03:47:17.126Z,90.62
2023-01-06T03:48:17.096Z,90.72
2023-01-06T03:49:17.103Z,90.82
2023-01-06T03:50:17.061Z,90.72
2023-01-06T03:51:17.080Z,90.82
2023-01-06T03:52:17.073Z,90.82
2023-01-06T03:53:17.022Z,90.82
2023-01-06T03:54:17.043Z,90.92
2023-01-06T03:55:17.004Z,90.92
2023-01-06T03:56:17.009Z,91.03
2023-01-06T03:57:16.989Z,91.13
2023-01-06T03:58:16.989Z,91.03
2023-01-06T03:59:16.952Z,90.92
2023-01-06T04:00:17.012Z,91.03
2023-01-06T04:01:17.034Z,91.03
2023-01-06T04:02:16.936Z,91.03
2023-01-06T04:03:16.959Z,90.92
2023-01-06T04:04:16.907Z,90.92
2023-01-06T04:05:16.937Z,91.03
2023-01-06T04:06:16.883Z,91.13
2023-01-06T04:07:16.903Z,90.92
2023-01-06T04:08:16.900Z,90.82
2023-01-06T04:09:16.886Z,90.82
2023-01-06T04:10:16.862Z,90.92
2023-01-06T04:11:16.823Z,90.82
2023-01-06T04:12:16.853Z,90.82
2023-01-06T04:13:16.806Z,90.82
2023-01-06T04:14:16.815Z,90.82
2023-01-06T04:15:16.841Z,90.82
2023-01-06T04:16:16.793Z,90.82
2023-01-06T04:17:16.794Z,90.52
2023-01-06T04:18:16.761Z,90.00
2023-01-06T04:19:16.741Z,89.90
2023-01-06T04:20:16.755Z,89.90
2023-01-06T04:21:16.772Z,89.59
2023-01-06T04:22:16.730Z,89.59
2023-01-06T04:23:16.700Z,89.39
2023-01-06T04:24:16.711Z,89.50
2023-01-06T04:25:16.682Z,89.50
2023-01-06T04:26:16.680Z,89.39
2023-01-06T04:27:16.691Z,89.09
2023-01-06T04:28:16.706Z,88.88
2023-01-06T04:29:18.059Z,88.68
2023-01-06T04:30:16.641Z,88.57
2023-01-06T04:31:16.678Z,88.68
2023-01-06T04:32:16.706Z,88.68
2023-01-06T04:33:16.591Z,88.47
2023-01-06T04:34:16.630Z,88.37
2023-01-06T04:35:16.570Z,88.26
2023-01-06T04:36:16.572Z,88.17
2023-01-06T04:37:16.592Z,88.06
2023-01-06T04:38:16.564Z,88.17
2023-01-06T04:39:16.530Z,88.26
2023-01-06T04:40:16.558Z,88.26
2023-01-06T04:41:16.510Z,88.26
2023-01-06T04:42:16.591Z,88.06
2023-01-06T04:43:16.495Z,87.76
2023-01-06T04:44:16.520Z,87.96
2023-01-06T04:45:16.493Z,88.06
2023-01-06T04:46:16.530Z,87.96
2023-01-06T04:47:16.496Z,87.35
2023-01-06T04:48:16.473Z,87.35
2023-01-06T04:49:16.437Z,87.24
2023-01-06T04:50:16.454Z,87.24
2023-01-06T04:51:16.431Z,86.94
2023-01-06T04:52:16.488Z,86.73
2023-01-06T04:53:16.389Z,86.73
2023-01-06T04:54:16.370Z,87.04
2023-01-06T04:55:16.368Z,86.94
2023-01-06T04:56:16.359Z,86.94
2023-01-06T04:57:16.328Z,86.53
2023-01-06T04:58:16.368Z,86.53
2023-01-06T04:59:16.321Z,86.59
2023-01-06T05:00:16.314Z,86.69
2023-01-06T05:01:16.396Z,86.49
2023-01-06T05:02:16.357Z,86.49
2023-01-06T05:03:24.979Z,86.49
2023-01-06T05:04:23.811Z,86.49
2023-01-06T05:05:16.255Z,86.69
2023-01-06T05:06:16.260Z,86.18
2023-01-06T05:07:16.286Z,86.18
2023-01-06T05:08:16.230Z,85.97
2023-01-06T05:09:16.257Z,85.67
2023-01-06T05:10:16.218Z,85.97
2023-01-06T05:11:16.312Z,86.08
2023-01-06T05:12:16.199Z,85.88
2023-01-06T05:13:16.182Z,85.77
2023-01-06T05:14:17.091Z,85.67
2023-01-06T05:15:16.160Z,85.88
2023-01-06T05:16:16.148Z,85.77
2023-01-06T05:17:16.196Z,85.47
2023-01-06T05:18:16.123Z,85.57
2023-01-06T05:19:16.179Z,85.77
2023-01-06T05:20:16.107Z,86.18
2023-01-06T05:21:16.088Z,85.67
2023-01-06T05:22:16.079Z,85.57
2023-01-06T05:23:16.118Z,85.57
2023-01-06T05:24:16.070Z,85.67
2023-01-06T05:25:16.105Z,85.67
2023-01-06T05:26:16.657Z,85.77
2023-01-06T05:27:16.027Z,85.57
2023-01-06T05:28:16.063Z,85.57
2023-01-06T05:29:16.020Z,85.57
2023-01-06T05:30:16.038Z,85.47
2023-01-06T05:31:16.032Z,85.67
2023-01-06T05:32:15.987Z,85.36
2023-01-06T05:33:15.978Z,85.26
2023-01-06T05:34:15.957Z,85.16
2023-01-06T05:35:15.949Z,85.26
2023-01-06T05:36:15.983Z,85.26
2023-01-06T05:37:15.940Z,85.22
2023-01-06T05:38:15.969Z,85.12
2023-01-06T05:39:15.886Z,85.32
2023-01-06T05:40:15.919Z,85.53
2023-01-06T05:41:15.873Z,85.53
2023-01-06T05:42:15.884Z,85.02
2023-01-06T05:43:15.916Z,85.12
2023-01-06T05:44:15.856Z,85.32
2023-01-06T05:45:15.836Z,85.12
2023-01-06T05:46:15.885Z,85.12
2023-01-06T05:47:15.812Z,85.22
2023-01-06T05:48:15.797Z,85.22
2023-01-06T05:49:15.828Z,85.12
2023-01-06T05:50:15.798Z,85.32
2023-01-06T05:51:15.792Z,85.42
2023-01-06T05:52:15.786Z,85.32
2023-01-06T05:53:15.747Z,85.63
2023-01-06T05:54:15.737Z,85.83
2023-01-06T05:55:15.809Z,85.88
2023-01-06T05:56:15.736Z,85.88
2023-01-06T05:57:15.722Z,85.97
2023-01-06T05:58:15.706Z,86.18
2023-01-06T05:59:15.684Z,86.18
2023-01-06T06:00:15.692Z,86.08
2023-01-06T06:01:16.646Z,86.08
2023-01-06T06:02:15.728Z,86.29
2023-01-06T06:03:15.653Z,86.29
2023-01-06T06:04:17.149Z,86.08
2023-01-06T06:05:15.649Z,86.08
2023-01-06T06:06:15.642Z,86.08
2023-01-06T06:07:15.595Z,86.08
2023-01-06T06:08:15.618Z,86.18
2023-01-06T06:09:15.583Z,86.08
2023-01-06T06:10:15.597Z,86.29
2023-01-06T06:11:15.594Z,86.29
2023-01-06T06:12:15.585Z,86.08
2023-01-06T06:13:15.563Z,85.97
2023-01-06T06:14:17.257Z,86.18
2023-01-06T06:15:15.585Z,86.08
2023-01-06T06:16:15.557Z,85.97
2023-01-06T06:17:15.495Z,85.97
2023-01-06T06:18:15.487Z,85.97
2023-01-06T06:19:15.497Z,86.08
2023-01-06T06:20:15.525Z,86.08
2023-01-06T06:21:15.456Z,86.18
2023-01-06T06:22:15.445Z,86.18
2023-01-06T06:23:15.443Z,86.18
2023-01-06T06:24:15.458Z,86.18
2023-01-06T06:25:15.469Z,86.29
2023-01-06T06:26:15.475Z,86.08
2023-01-06T06:27:15.384Z,85.97
2023-01-06T06:28:15.380Z,86.08
2023-01-06T06:29:15.393Z,86.08
2023-01-06T06:30:15.534Z,86.18
2023-01-06T06:31:15.378Z,86.08
2023-01-06T06:32:15.421Z,86.08
2023-01-06T06:33:15.325Z,86.18
2023-01-06T06:34:15.322Z,86.08
2023-01-06T06:35:15.323Z,86.18
2023-01-06T06:36:15.336Z,86.08
2023-01-06T06:37:15.276Z,86.18
2023-01-06T06:38:15.264Z,86.18
2023-01-06T06:39:15.275Z,86.38
2023-01-06T06:40:15.264Z,86.38
2023-01-06T06:41:15.244Z,86.38
2023-01-06T06:42:15.252Z,86.38
2023-01-06T06:43:15.230Z,86.29
2023-01-06T06:44:15.323Z,86.29
2023-01-06T06:45:15.203Z,86.29
2023-01-06T06:46:15.185Z,86.38
2023-01-06T06:47:16.974Z,86.29
2023-01-06T06:48:15.246Z,86.29
2023-01-06T06:49:15.163Z,86.38
2023-01-06T06:50:15.133Z,86.38
2023-01-06T06:51:15.142Z,86.59
2023-01-06T06:52:15.145Z,86.38
2023-01-06T06:53:15.104Z,86.29
2023-01-06T06:54:15.112Z,86.29
2023-01-06T06:55:15.152Z,86.29
2023-01-06T06:56:15.081Z,86.29
2023-01-06T06:57:15.092Z,86.49
2023-01-06T06:58:15.051Z,86.49
2023-01-06T06:59:15.037Z,86.69
2023-01-06T07:00:15.030Z,86.59
2023-01-06T07:01:15.145Z,86.59
2023-01-06T07:02:15.101Z,86.59
2023-01-06T07:03:15.011Z,86.79
2023-01-06T07:04:15.058Z,86.69
2023-01-06T07:05:15.013Z,86.79
2023-01-06T07:06:14.973Z,86.69
2023-01-06T07:07:15.014Z,86.79
2023-01-06T07:08:14.946Z,86.69
2023-01-06T07:09:14.949Z,86.79
2023-01-06T07:10:14.927Z,86.79
2023-01-06T07:11:14.960Z,86.90
2023-01-06T07:12:14.907Z,86.79
2023-01-06T07:13:15.043Z,87.00
2023-01-06T07:14:15.022Z,87.10
2023-01-06T07:15:14.888Z,87.10
2023-01-06T07:16:14.944Z,87.00
2023-01-06T07:17:14.883Z,87.00
2023-01-06T07:18:14.840Z,87.00
2023-01-06T07:19:14.843Z,87.00
2023-01-06T07:20:15.140Z,86.90
2023-01-06T07:21:14.836Z,86.90
2023-01-06T07:22:15.093Z,86.90
2023-01-06T07:23:14.908Z,86.69
2023-01-06T07:24:14.796Z,86.59
2023-01-06T07:25:14.813Z,86.69
2023-01-06T07:26:14.783Z,86.79
2023-01-06T07:27:14.755Z,86.69
2023-01-06T07:28:14.740Z,86.59
2023-01-06T07:29:14.786Z,86.69
2023-01-06T07:30:14.711Z,86.69
2023-01-06T07:31:14.786Z,86.79
2023-01-06T07:32:14.686Z,86.69
2023-01-06T07:33:14.728Z,86.38
2023-01-06T07:34:14.702Z,86.18
2023-01-06T07:35:14.779Z,86.08
2023-01-06T07:36:14.746Z,86.18
2023-01-06T07:37:14.650Z,86.18
2023-01-06T07:38:14.648Z,86.08
2023-01-06T07:39:14.883Z,86.18
2023-01-06T07:40:14.625Z,86.08
2023-01-06T07:41:14.641Z,86.18
2023-01-06T07:42:14.579Z,86.18
2023-01-06T07:43:14.621Z,86.18
2023-01-06T07:44:16.648Z,86.04
2023-01-06T07:45:14.600Z,85.94
2023-01-06T07:46:14.560Z,86.04
2023-01-06T07:47:14.585Z,86.04
2023-01-06T07:48:14.519Z,86.14
2023-01-06T07:49:14.511Z,86.14
2023-01-06T07:50:14.482Z,86.14
2023-01-06T07:51:14.585Z,85.94
2023-01-06T07:52:14.477Z,85.94
2023-01-06T07:53:14.499Z,85.73
2023-01-06T07:54:14.551Z,85.94
2023-01-06T07:55:14.447Z,85.83
2023-01-06T07:56:14.444Z,85.94
2023-01-06T07:57:14.467Z,85.73
2023-01-06T07:58:14.401Z,85.83
2023-01-06T07:59:14.391Z,85.73
2023-01-06T08:00:14.489Z,85.73
2023-01-06T08:01:14.410Z,85.83
2023-01-06T08:02:14.388Z,85.73
2023-01-06T08:03:14.416Z,85.63
2023-01-06T08:04:14.419Z,85.53
2023-01-06T08:05:14.353Z,85.63
2023-01-06T08:06:14.348Z,85.42
2023-01-06T08:07:14.448Z,85.32
2023-01-06T08:08:14.317Z,85.32
2023-01-06T08:09:14.297Z,85.32
2023-01-06T08:10:14.347Z,85.42
2023-01-06T08:11:14.289Z,85.42
2023-01-06T08:12:14.271Z,85.42
2023-01-06T08:13:19.724Z,85.53
2023-01-06T08:14:14.247Z,85.42
2023-01-06T08:15:14.232Z,85.63
2023-01-06T08:16:14.323Z,85.73
2023-01-06T08:17:14.248Z,85.63
2023-01-06T08:18:14.200Z,85.83
2023-01-06T08:19:14.181Z,85.83
2023-01-06T08:20:14.169Z,85.73
2023-01-06T08:21:14.157Z,85.73
2023-01-06T08:22:14.143Z,85.73
2023-01-06T08:23:14.173Z,85.83
2023-01-06T08:24:14.127Z,85.73
2023-01-06T08:25:14.150Z,85.83
2023-01-06T08:26:14.101Z,85.83
2023-01-06T08:27:14.111Z,85.94
2023-01-06T08:28:14.189Z,85.83
2023-01-06T08:29:14.132Z,85.94
2023-01-06T08:30:14.065Z,85.94
2023-01-06T08:31:14.092Z,85.94
2023-01-06T08:32:14.049Z,85.94
2023-01-06T08:33:14.031Z,85.94
2023-01-06T08:34:14.066Z,85.94
2023-01-06T08:35:14.007Z,86.14
2023-01-06T08:36:13.996Z,86.35
2023-01-06T08:37:13.995Z,86.55
2023-01-06T08:38:13.979Z,86.85
2023-01-06T08:39:13.978Z,86.96
2023-01-06T08:40:13.980Z,87.06
2023-01-06T08:41:13.961Z,87.26
2023-01-06T08:42:13.938Z,87.37
2023-01-06T08:43:13.929Z,87.57
2023-01-06T08:44:13.907Z,87.77
2023-01-06T08:45:13.940Z,87.98
2023-01-06T08:46:13.904Z,88.18
2023-01-06T08:47:13.905Z,88.49
2023-01-06T08:48:13.857Z,88.74
2023-01-06T08:49:13.869Z,88.84
2023-01-06T08:50:13.852Z,89.04
2023-01-06T08:51:15.598Z,89.15
2023-01-06T08:52:13.837Z,89.25
2023-01-06T08:53:13.814Z,89.45
2023-01-06T08:54:13.798Z,89.56
2023-01-06T08:55:13.807Z,89.56
2023-01-06T08:56:13.796Z,89.65
2023-01-06T08:57:13.810Z,89.76
2023-01-06T08:58:13.766Z,89.86
2023-01-06T08:59:13.801Z,89.97
2023-01-06T09:00:13.755Z,90.06
2023-01-06T09:01:13.814Z,90.27
2023-01-06T09:02:13.893Z,90.58
2023-01-06T09:03:13.723Z,90.99
2023-01-06T09:04:13.842Z,91.19
2023-01-06T09:05:13.784Z,91.29
2023-01-06T09:06:13.685Z,91.50
2023-01-06T09:07:13.681Z,91.70
2023-01-06T09:08:13.658Z,91.80
2023-01-06T09:09:13.645Z,91.80
2023-01-06T09:10:17.433Z,91.85
2023-01-06T09:11:13.701Z,91.74
2023-01-06T09:12:13.680Z,91.39
2023-01-06T09:13:13.624Z,91.50
2023-01-06T09:14:13.621Z,91.39
2023-01-06T09:15:13.605Z,91.50
2023-01-06T09:16:13.626Z,91.60
2023-01-06T09:17:13.637Z,91.70
2023-01-06T09:18:13.554Z,91.39
2023-01-06T09:19:13.560Z,91.29
2023-01-06T09:20:13.601Z,91.19
2023-01-06T09:21:13.553Z,91.19
2023-01-06T09:22:13.596Z,91.09
2023-01-06T09:23:13.573Z,91.09
2023-01-06T09:24:13.489Z,90.99
2023-01-06T09:25:13.552Z,91.09
2023-01-06T09:26:13.571Z,90.88
2023-01-06T09:27:13.504Z,90.78
2023-01-06T09:28:13.452Z,90.78
2023-01-06T09:29:13.514Z,90.88
2023-01-06T09:30:13.494Z,90.53
2023-01-06T09:31:13.500Z,90.53
2023-01-06T09:32:13.397Z,90.53
2023-01-06T09:33:13.405Z,90.64
2023-01-06T09:34:13.383Z,90.74
2023-01-06T09:35:13.380Z,90.64
2023-01-06T09:36:17.361Z,90.64
2023-01-06T09:37:13.416Z,90.64
2023-01-06T09:38:13.417Z,90.64
2023-01-06T09:39:13.335Z,90.74
2023-01-06T09:40:13.317Z,90.74
2023-01-06T09:41:13.327Z,90.84
2023-01-06T09:42:13.314Z,90.84
2023-01-06T09:43:13.284Z,90.84
2023-01-06T09:44:13.274Z,91.05
2023-01-06T09:45:13.274Z,91.46
2023-01-06T09:46:13.300Z,92.27
2023-01-06T09:47:13.274Z,92.78
2023-01-06T09:48:13.223Z,93.44
2023-01-06T09:49:13.238Z,93.95
2023-01-06T09:50:13.211Z,94.36
2023-01-06T09:51:13.209Z,94.67
2023-01-06T09:52:13.244Z,95.07
2023-01-06T09:53:13.207Z,95.28
2023-01-06T09:54:13.174Z,95.43
2023-01-06T09:55:13.158Z,95.43
2023-01-06T09:56:13.213Z,95.43
2023-01-06T09:57:13.149Z,95.53
2023-01-06T09:58:13.137Z,95.53
2023-01-06T09:59:13.124Z,95.32
2023-01-06T10:00:13.131Z,95.18
2023-01-06T10:01:13.171Z,95.18
2023-01-06T10:02:13.215Z,95.07
2023-01-06T10:03:13.099Z,94.97
2023-01-06T10:04:13.109Z,94.77
2023-01-06T10:05:13.086Z,94.67
2023-01-06T10:06:13.097Z,94.46
2023-01-06T10:07:13.023Z,94.26
2023-01-06T10:08:13.069Z,94.15
2023-01-06T10:09:13.016Z,94.15
2023-01-06T10:10:12.994Z,94.06
2023-01-06T10:11:13.051Z,94.06
2023-01-06T10:12:13.055Z,94.01
2023-01-06T10:13:12.963Z,94.01
2023-01-06T10:14:12.944Z,94.01
2023-01-06T10:15:12.976Z,94.11
2023-01-06T10:16:13.021Z,94.11
2023-01-06T10:17:12.998Z,94.21
2023-01-06T10:18:12.921Z,94.11
2023-01-06T10:19:12.908Z,94.21
2023-01-06T10:20:12.885Z,94.32
2023-01-06T10:21:12.885Z,94.36
2023-01-06T10:22:12.904Z,94.32
2023-01-06T10:23:12.861Z,94.46
2023-01-06T10:24:12.872Z,94.42
2023-01-06T10:25:12.938Z,94.46
2023-01-06T10:26:12.858Z,94.42
2023-01-06T10:27:12.831Z,94.62
2023-01-06T10:28:12.801Z,95.34
2023-01-06T10:29:12.803Z,94.62
2023-01-06T10:30:12.813Z,94.21
2023-01-06T10:31:12.848Z,94.21
2023-01-06T10:32:16.683Z,94.21
2023-01-06T10:33:12.830Z,94.32
2023-01-06T10:34:12.816Z,94.32
2023-01-06T10:35:12.906Z,94.32
2023-01-06T10:36:12.735Z,94.32
2023-01-06T10:37:12.744Z,94.32
2023-01-06T10:38:12.697Z,94.21
2023-01-06T10:39:12.713Z,94.11
2023-01-06T10:40:12.853Z,94.21
2023-01-06T10:41:12.721Z,94.21
2023-01-06T10:42:12.674Z,94.11
2023-01-06T10:43:12.645Z,94.01
2023-01-06T10:44:12.657Z,94.01
2023-01-06T10:45:12.623Z,94.01
2023-01-06T10:46:12.695Z,94.01
2023-01-06T10:47:13.032Z,94.11
2023-01-06T10:48:12.654Z,94.11
2023-01-06T10:49:12.590Z,94.11
2023-01-06T10:50:12.561Z,93.91
2023-01-06T10:51:12.577Z,93.80
2023-01-06T10:52:12.541Z,93.80
2023-01-06T10:53:12.594Z,93.80
2023-01-06T10:54:12.529Z,93.91
2023-01-06T10:55:12.532Z,93.91
2023-01-06T10:56:12.561Z,94.01
2023-01-06T10:57:12.505Z,93.91
2023-01-06T10:58:12.518Z,93.80
2023-01-06T10:59:12.515Z,93.80
2023-01-06T11:00:12.532Z,93.70
2023-01-06T11:01:12.533Z,93.70
2023-01-06T11:02:12.545Z,93.29
2023-01-06T11:03:32.353Z,93.19
2023-01-06T11:04:13.469Z,93.19
2023-01-06T11:05:12.411Z,93.19
2023-01-06T11:06:12.431Z,93.29
2023-01-06T11:07:12.429Z,93.29
2023-01-06T11:08:12.380Z,93.29
2023-01-06T11:09:12.382Z,93.19
2023-01-06T11:10:12.337Z,93.09
2023-01-06T11:11:27.367Z,92.99
2023-01-06T11:12:13.383Z,93.09
2023-01-06T11:13:12.325Z,93.09
2023-01-06T11:14:12.489Z,92.88
2023-01-06T11:15:12.317Z,92.78
2023-01-06T11:16:12.399Z,92.68
2023-01-06T11:17:12.312Z,92.43
2023-01-06T11:18:12.269Z,92.33
2023-01-06T11:19:12.252Z,92.33
2023-01-06T11:20:12.308Z,92.13
2023-01-06T11:21:12.234Z,91.92
2023-01-06T11:22:12.236Z,91.92
2023-01-06T11:23:14.631Z,91.72
2023-01-06T11:24:12.238Z,91.41
2023-01-06T11:25:12.207Z,91.61
2023-01-06T11:26:12.190Z,91.41
2023-01-06T11:27:12.177Z,91.20
2023-01-06T11:28:12.177Z,91.20
2023-01-06T11:29:12.191Z,91.31
2023-01-06T11:30:13.452Z,91.41
2023-01-06T11:31:12.166Z,91.52
2023-01-06T11:32:12.144Z,91.20
2023-01-06T11:33:12.113Z,91.11
2023-01-06T11:34:12.099Z,91.11
2023-01-06T11:35:12.168Z,91.11
2023-01-06T11:36:14.238Z,90.80
2023-01-06T11:37:12.072Z,90.49
2023-01-06T11:38:12.061Z,90.29
2023-01-06T11:39:12.061Z,90.08
2023-01-06T11:40:12.066Z,90.08
2023-01-06T11:41:12.017Z,90.08
2023-01-06T11:42:12.061Z,89.88
2023-01-06T11:43:12.000Z,89.73
2023-01-06T11:44:12.002Z,89.63
2023-01-06T11:45:12.002Z,89.43
2023-01-06T11:46:12.098Z,89.32
2023-01-06T11:47:11.960Z,89.32
2023-01-06T11:48:16.243Z,89.32
2023-01-06T11:49:11.948Z,89.43
2023-01-06T11:50:11.937Z,88.92
2023-01-06T11:51:11.985Z,88.92
2023-01-06T11:52:11.960Z,89.02
2023-01-06T11:53:11.906Z,88.82
2023-01-06T11:54:12.001Z,88.71
2023-01-06T11:55:13.401Z,88.20
2023-01-06T11:56:11.879Z,87.70
2023-01-06T11:57:11.888Z,87.38
2023-01-06T11:58:12.026Z,87.49
2023-01-06T11:59:11.848Z,87.18
2023-01-06T12:00:12.072Z,87.08
2023-01-06T12:01:12.765Z,86.57
2023-01-06T12:02:11.924Z,86.22
2023-01-06T12:03:11.917Z,86.22
2023-01-06T12:04:11.824Z,86.02
2023-01-06T12:05:11.768Z,86.02
2023-01-06T12:06:11.843Z,86.02
2023-01-06T12:07:11.797Z,86.22
2023-01-06T12:08:11.867Z,86.53
2023-01-06T12:09:11.790Z,86.33
2023-01-06T12:10:11.824Z,86.43
2023-01-06T12:11:11.719Z,86.63
2023-01-06T12:12:11.731Z,86.73
2023-01-06T12:13:11.678Z,86.73
2023-01-06T12:14:23.609Z,86.94
2023-01-06T12:15:12.690Z,86.83
2023-01-06T12:16:11.820Z,86.83
2023-01-06T12:17:11.893Z,87.04
2023-01-06T12:18:11.679Z,86.94
2023-01-06T12:19:11.608Z,87.04
2023-01-06T12:20:13.292Z,87.24
2023-01-06T12:21:11.591Z,87.35
2023-01-06T12:22:17.087Z,87.45
2023-01-06T12:23:11.590Z,86.33
2023-01-06T12:24:11.649Z,85.92
2023-01-06T12:25:11.720Z,86.02
2023-01-06T12:26:11.568Z,86.12
2023-01-06T12:27:11.579Z,85.92
2023-01-06T12:28:11.537Z,85.71
2023-01-06T12:29:11.559Z,85.30
2023-01-06T12:30:11.536Z,85.41
2023-01-06T12:31:11.781Z,85.61
2023-01-06T12:32:11.624Z,85.92
2023-01-06T12:33:11.526Z,86.22
2023-01-06T12:34:11.460Z,86.53
2023-01-06T12:35:11.448Z,86.73
2023-01-06T12:36:11.525Z,86.94
2023-01-06T12:37:11.446Z,86.73
2023-01-06T12:43:40.428Z,86.83
2023-01-06T12:44:40.442Z,86.94
2023-01-06T12:45:43.464Z,86.73
2023-01-06T12:46:41.556Z,85.92
2023-01-06T12:47:40.439Z,85.82
2023-01-06T12:48:40.797Z,85.92
2023-01-06T12:49:40.638Z,86.02
2023-01-06T12:50:42.434Z,86.12
2023-01-06T12:51:40.351Z,85.92
2023-01-06T12:52:40.333Z,86.02
2023-01-06T12:53:40.378Z,84.80
2023-01-06T12:54:40.423Z,84.90
2023-01-06T12:55:40.331Z,85.27
2023-01-06T12:56:42.139Z,85.37
2023-01-06T12:57:40.240Z,85.37